sensor_id;sensor_type;location;lat;lon;timestamp;temperature;humidity
17092;DHT22;8661;45.700;4.880;2022-11-15T00:01:16;12.40;99.90
17092;DHT22;8661;45.700;4.880;2022-11-15T00:03:43;12.40;99.90
17092;DHT22;8661;45.700;4.880;2022-11-15T00:06:12;12.30;99.90
17092;DHT22;8661;45.700;4.880;2022-11-15T00:08:39;12.30;99.90
17092;DHT22;8661;45.700;4.880;2022-11-15T00:11:06;12.30;99.90
17092;DHT22;8661;45.700;4.880;2022-11-15T00:13:32;12.30;99.90
17092;DHT22;8661;45.700;4.880;2022-11-15T00:16:00;12.20;99.90
17092;DHT22;8661;45.700;4.880;2022-11-15T00:18:28;12.30;99.90
17092;DHT22;8661;45.700;4.880;2022-11-15T00:20:56;12.30;99.90
17092;DHT22;8661;45.700;4.880;2022-11-15T00:23:24;12.30;99.90
17092;DHT22;8661;45.700;4.880;2022-11-15T00:25:55;12.30;99.90
17092;DHT22;8661;45.700;4.880;2022-11-15T00:28:23;12.20;99.90
17092;DHT22;8661;45.700;4.880;2022-11-15T00:30:50;12.20;99.90
17092;DHT22;8661;45.700;4.880;2022-11-15T00:33:17;12.20;99.90
17092;DHT22;8661;45.700;4.880;2022-11-15T00:35:44;12.20;99.90
17092;DHT22;8661;45.700;4.880;2022-11-15T00:38:10;12.20;99.90
17092;DHT22;8661;45.700;4.880;2022-11-15T00:40:39;12.20;99.90
17092;DHT22;8661;45.700;4.880;2022-11-15T00:43:06;12.20;99.90
17092;DHT22;8661;45.700;4.880;2022-11-15T00:45:32;12.30;99.90
17092;DHT22;8661;45.700;4.880;2022-11-15T00:47:59;12.20;99.90
17092;DHT22;8661;45.700;4.880;2022-11-15T00:50:26;12.20;99.90
17092;DHT22;8661;45.700;4.880;2022-11-15T00:52:53;12.20;99.90
17092;DHT22;8661;45.700;4.880;2022-11-15T00:55:20;12.20;99.90
17092;DHT22;8661;45.700;4.880;2022-11-15T00:57:48;12.20;99.90
17092;DHT22;8661;45.700;4.880;2022-11-15T01:00:16;12.20;99.90
17092;DHT22;8661;45.700;4.880;2022-11-15T01:02:43;12.20;99.90
17092;DHT22;8661;45.700;4.880;2022-11-15T01:05:09;12.20;99.90
17092;DHT22;8661;45.700;4.880;2022-11-15T01:07:36;12.20;99.90
17092;DHT22;8661;45.700;4.880;2022-11-15T01:10:04;12.20;99.90
17092;DHT22;8661;45.700;4.880;2022-11-15T01:12:31;12.20;99.90
17092;DHT22;8661;45.700;4.880;2022-11-15T01:14:59;12.20;99.90
17092;DHT22;8661;45.700;4.880;2022-11-15T01:17:26;12.20;99.90
17092;DHT22;8661;45.700;4.880;2022-11-15T01:19:53;12.20;99.90
17092;DHT22;8661;45.700;4.880;2022-11-15T01:22:20;12.20;99.90
17092;DHT22;8661;45.700;4.880;2022-11-15T01:24:47;12.20;99.90
17092;DHT22;8661;45.700;4.880;2022-11-15T01:27:15;12.20;99.90
17092;DHT22;8661;45.700;4.880;2022-11-15T01:29:42;12.20;99.90
17092;DHT22;8661;45.700;4.880;2022-11-15T01:32:10;12.20;99.90
17092;DHT22;8661;45.700;4.880;2022-11-15T01:34:37;12.20;99.90
17092;DHT22;8661;45.700;4.880;2022-11-15T01:37:04;12.20;99.90
17092;DHT22;8661;45.700;4.880;2022-11-15T01:39:31;12.20;99.90
17092;DHT22;8661;45.700;4.880;2022-11-15T01:41:58;12.20;99.90
17092;DHT22;8661;45.700;4.880;2022-11-15T01:44:43;12.20;99.90
17092;DHT22;8661;45.700;4.880;2022-11-15T01:47:15;12.20;99.90
17092;DHT22;8661;45.700;4.880;2022-11-15T01:49:49;12.20;99.90
17092;DHT22;8661;45.700;4.880;2022-11-15T01:52:19;12.10;99.90
17092;DHT22;8661;45.700;4.880;2022-11-15T01:54:47;12.10;99.90
17092;DHT22;8661;45.700;4.880;2022-11-15T01:57:15;12.10;99.90
17092;DHT22;8661;45.700;4.880;2022-11-15T01:59:43;12.10;99.90
17092;DHT22;8661;45.700;4.880;2022-11-15T02:05:08;12.10;99.90
17092;DHT22;8661;45.700;4.880;2022-11-15T02:07:36;12.10;99.90
17092;DHT22;8661;45.700;4.880;2022-11-15T02:10:07;12.10;99.90
17092;DHT22;8661;45.700;4.880;2022-11-15T02:12:35;12.10;99.90
17092;DHT22;8661;45.700;4.880;2022-11-15T02:15:04;12.10;99.90
17092;DHT22;8661;45.700;4.880;2022-11-15T02:17:45;12.10;99.90
17092;DHT22;8661;45.700;4.880;2022-11-15T02:26:51;12.10;99.90
17092;DHT22;8661;45.700;4.880;2022-11-15T02:29:31;12.10;99.90
17092;DHT22;8661;45.700;4.880;2022-11-15T02:32:05;12.10;99.90
17092;DHT22;8661;45.700;4.880;2022-11-15T02:34:41;12.10;99.90
17092;DHT22;8661;45.700;4.880;2022-11-15T02:37:15;12.10;99.90
17092;DHT22;8661;45.700;4.880;2022-11-15T02:39:49;12.10;99.90
17092;DHT22;8661;45.700;4.880;2022-11-15T02:42:19;12.10;99.90
17092;DHT22;8661;45.700;4.880;2022-11-15T02:45:07;12.10;99.90
17092;DHT22;8661;45.700;4.880;2022-11-15T02:47:41;12.10;99.90
17092;DHT22;8661;45.700;4.880;2022-11-15T02:50:12;12.00;99.90
17092;DHT22;8661;45.700;4.880;2022-11-15T02:52:39;12.00;99.90
17092;DHT22;8661;45.700;4.880;2022-11-15T02:55:28;12.00;99.90
17092;DHT22;8661;45.700;4.880;2022-11-15T02:58:06;12.00;99.90
17092;DHT22;8661;45.700;4.880;2022-11-15T03:00:40;12.00;99.90
17092;DHT22;8661;45.700;4.880;2022-11-15T03:03:29;12.00;99.90
17092;DHT22;8661;45.700;4.880;2022-11-15T03:06:05;11.90;99.90
17092;DHT22;8661;45.700;4.880;2022-11-15T03:08:50;12.00;99.90
17092;DHT22;8661;45.700;4.880;2022-11-15T03:11:22;11.90;99.90
17092;DHT22;8661;45.700;4.880;2022-11-15T03:13:56;11.90;99.90
17092;DHT22;8661;45.700;4.880;2022-11-15T03:16:28;11.90;99.90
17092;DHT22;8661;45.700;4.880;2022-11-15T03:19:04;11.90;99.90
17092;DHT22;8661;45.700;4.880;2022-11-15T03:21:34;11.90;99.90
17092;DHT22;8661;45.700;4.880;2022-11-15T03:24:04;11.90;99.90
17092;DHT22;8661;45.700;4.880;2022-11-15T03:26:34;12.00;99.90
17092;DHT22;8661;45.700;4.880;2022-11-15T03:29:06;12.00;99.90
17092;DHT22;8661;45.700;4.880;2022-11-15T03:31:38;12.00;99.90
17092;DHT22;8661;45.700;4.880;2022-11-15T03:34:22;12.00;99.90
17092;DHT22;8661;45.700;4.880;2022-11-15T03:36:51;12.00;99.90
17092;DHT22;8661;45.700;4.880;2022-11-15T03:39:20;12.00;99.90
17092;DHT22;8661;45.700;4.880;2022-11-15T03:41:50;12.00;99.90
17092;DHT22;8661;45.700;4.880;2022-11-15T03:44:26;12.00;99.90
17092;DHT22;8661;45.700;4.880;2022-11-15T03:47:03;12.00;99.90
17092;DHT22;8661;45.700;4.880;2022-11-15T03:49:34;12.00;99.90
17092;DHT22;8661;45.700;4.880;2022-11-15T03:52:02;12.00;99.90
17092;DHT22;8661;45.700;4.880;2022-11-15T03:54:30;12.00;99.90
17092;DHT22;8661;45.700;4.880;2022-11-15T03:56:57;12.00;99.90
17092;DHT22;8661;45.700;4.880;2022-11-15T03:59:24;12.00;99.90
17092;DHT22;8661;45.700;4.880;2022-11-15T04:01:51;12.00;99.90
17092;DHT22;8661;45.700;4.880;2022-11-15T04:04:17;12.00;99.90
17092;DHT22;8661;45.700;4.880;2022-11-15T04:06:46;12.00;99.90
17092;DHT22;8661;45.700;4.880;2022-11-15T04:09:13;12.00;99.90
17092;DHT22;8661;45.700;4.880;2022-11-15T04:11:39;12.00;99.90
17092;DHT22;8661;45.700;4.880;2022-11-15T04:14:06;12.00;99.90
17092;DHT22;8661;45.700;4.880;2022-11-15T04:16:33;12.00;99.90
17092;DHT22;8661;45.700;4.880;2022-11-15T04:19:00;12.00;99.90
17092;DHT22;8661;45.700;4.880;2022-11-15T04:21:46;12.00;99.90
17092;DHT22;8661;45.700;4.880;2022-11-15T04:24:30;12.00;99.90
17092;DHT22;8661;45.700;4.880;2022-11-15T04:26:57;12.00;99.90
17092;DHT22;8661;45.700;4.880;2022-11-15T04:29:24;12.00;99.90
17092;DHT22;8661;45.700;4.880;2022-11-15T04:32:04;12.00;99.90
17092;DHT22;8661;45.700;4.880;2022-11-15T04:34:32;12.00;99.90
17092;DHT22;8661;45.700;4.880;2022-11-15T04:37:00;12.00;99.90
17092;DHT22;8661;45.700;4.880;2022-11-15T04:39:39;12.00;99.90
17092;DHT22;8661;45.700;4.880;2022-11-15T04:42:06;12.00;99.90
17092;DHT22;8661;45.700;4.880;2022-11-15T04:44:33;12.00;99.90
17092;DHT22;8661;45.700;4.880;2022-11-15T04:47:00;12.00;99.90
17092;DHT22;8661;45.700;4.880;2022-11-15T04:49:27;12.00;99.90
17092;DHT22;8661;45.700;4.880;2022-11-15T04:51:54;12.00;99.90
17092;DHT22;8661;45.700;4.880;2022-11-15T04:54:22;12.00;99.90
17092;DHT22;8661;45.700;4.880;2022-11-15T04:56:49;12.00;99.90
17092;DHT22;8661;45.700;4.880;2022-11-15T04:59:16;12.00;99.90
17092;DHT22;8661;45.700;4.880;2022-11-15T05:01:43;12.00;99.90
17092;DHT22;8661;45.700;4.880;2022-11-15T05:04:10;12.00;99.90
17092;DHT22;8661;45.700;4.880;2022-11-15T05:06:45;12.00;99.90
17092;DHT22;8661;45.700;4.880;2022-11-15T05:09:12;12.00;99.90
17092;DHT22;8661;45.700;4.880;2022-11-15T05:11:41;12.00;99.90
17092;DHT22;8661;45.700;4.880;2022-11-15T05:14:08;12.00;99.90
17092;DHT22;8661;45.700;4.880;2022-11-15T05:16:35;12.00;99.90
17092;DHT22;8661;45.700;4.880;2022-11-15T05:19:03;12.00;99.90
17092;DHT22;8661;45.700;4.880;2022-11-15T05:21:30;12.00;99.90
17092;DHT22;8661;45.700;4.880;2022-11-15T05:23:58;12.00;99.90
17092;DHT22;8661;45.700;4.880;2022-11-15T05:26:25;12.00;99.90
17092;DHT22;8661;45.700;4.880;2022-11-15T05:28:54;12.00;99.90
17092;DHT22;8661;45.700;4.880;2022-11-15T05:31:22;12.00;99.90
17092;DHT22;8661;45.700;4.880;2022-11-15T05:33:50;12.00;99.90
17092;DHT22;8661;45.700;4.880;2022-11-15T05:36:21;12.00;99.90
17092;DHT22;8661;45.700;4.880;2022-11-15T05:38:49;12.00;99.90
17092;DHT22;8661;45.700;4.880;2022-11-15T05:41:19;12.00;99.90
17092;DHT22;8661;45.700;4.880;2022-11-15T05:43:48;12.00;99.90
17092;DHT22;8661;45.700;4.880;2022-11-15T05:46:17;12.00;99.90
17092;DHT22;8661;45.700;4.880;2022-11-15T05:48:47;12.00;99.90
17092;DHT22;8661;45.700;4.880;2022-11-15T05:51:16;12.00;99.90
17092;DHT22;8661;45.700;4.880;2022-11-15T05:53:44;12.00;99.90
17092;DHT22;8661;45.700;4.880;2022-11-15T05:56:12;12.00;99.90
17092;DHT22;8661;45.700;4.880;2022-11-15T05:58:40;12.00;99.90
17092;DHT22;8661;45.700;4.880;2022-11-15T06:01:06;12.00;99.90
17092;DHT22;8661;45.700;4.880;2022-11-15T06:03:35;12.00;99.90
17092;DHT22;8661;45.700;4.880;2022-11-15T06:06:02;12.00;99.90
17092;DHT22;8661;45.700;4.880;2022-11-15T06:08:29;12.00;99.90
17092;DHT22;8661;45.700;4.880;2022-11-15T06:10:55;12.00;99.90
17092;DHT22;8661;45.700;4.880;2022-11-15T06:13:22;12.00;99.90
17092;DHT22;8661;45.700;4.880;2022-11-15T06:15:49;12.00;99.90
17092;DHT22;8661;45.700;4.880;2022-11-15T06:18:16;12.00;99.90
17092;DHT22;8661;45.700;4.880;2022-11-15T06:20:44;11.90;99.90
17092;DHT22;8661;45.700;4.880;2022-11-15T06:23:11;12.00;99.90
17092;DHT22;8661;45.700;4.880;2022-11-15T06:25:38;11.90;99.90
17092;DHT22;8661;45.700;4.880;2022-11-15T06:28:05;12.00;99.90
17092;DHT22;8661;45.700;4.880;2022-11-15T06:30:32;11.90;99.90
17092;DHT22;8661;45.700;4.880;2022-11-15T06:33:00;11.90;99.90
17092;DHT22;8661;45.700;4.880;2022-11-15T06:35:28;11.90;99.90
17092;DHT22;8661;45.700;4.880;2022-11-15T06:38:02;11.90;99.90
17092;DHT22;8661;45.700;4.880;2022-11-15T06:40:29;11.90;99.90
17092;DHT22;8661;45.700;4.880;2022-11-15T06:42:58;11.90;99.90
17092;DHT22;8661;45.700;4.880;2022-11-15T06:45:25;11.90;99.90
17092;DHT22;8661;45.700;4.880;2022-11-15T06:47:52;11.90;99.90
17092;DHT22;8661;45.700;4.880;2022-11-15T06:50:19;11.90;99.90
17092;DHT22;8661;45.700;4.880;2022-11-15T06:52:46;11.90;99.90
17092;DHT22;8661;45.700;4.880;2022-11-15T06:55:15;11.90;99.90
17092;DHT22;8661;45.700;4.880;2022-11-15T06:57:47;11.90;99.90
17092;DHT22;8661;45.700;4.880;2022-11-15T07:00:15;12.00;99.90
17092;DHT22;8661;45.700;4.880;2022-11-15T07:02:42;12.00;99.90
17092;DHT22;8661;45.700;4.880;2022-11-15T07:05:09;12.00;99.90
17092;DHT22;8661;45.700;4.880;2022-11-15T07:07:36;12.00;99.90
17092;DHT22;8661;45.700;4.880;2022-11-15T07:10:03;12.00;99.90
17092;DHT22;8661;45.700;4.880;2022-11-15T07:12:32;12.00;99.90
17092;DHT22;8661;45.700;4.880;2022-11-15T07:14:59;12.00;99.90
17092;DHT22;8661;45.700;4.880;2022-11-15T07:17:26;12.00;99.90
17092;DHT22;8661;45.700;4.880;2022-11-15T07:19:53;12.10;99.90
17092;DHT22;8661;45.700;4.880;2022-11-15T07:22:20;12.10;99.90
17092;DHT22;8661;45.700;4.880;2022-11-15T07:24:47;12.10;99.90
17092;DHT22;8661;45.700;4.880;2022-11-15T07:27:14;12.20;99.90
17092;DHT22;8661;45.700;4.880;2022-11-15T07:29:42;12.20;99.90
17092;DHT22;8661;45.700;4.880;2022-11-15T07:32:09;12.20;99.90
17092;DHT22;8661;45.700;4.880;2022-11-15T07:34:36;12.20;99.90
17092;DHT22;8661;45.700;4.880;2022-11-15T07:37:03;12.20;99.90
17092;DHT22;8661;45.700;4.880;2022-11-15T07:39:30;12.20;99.90
17092;DHT22;8661;45.700;4.880;2022-11-15T07:41:57;12.30;99.90
17092;DHT22;8661;45.700;4.880;2022-11-15T07:44:37;12.30;99.90
17092;DHT22;8661;45.700;4.880;2022-11-15T07:47:06;12.30;99.90
17092;DHT22;8661;45.700;4.880;2022-11-15T07:49:33;12.30;99.90
17092;DHT22;8661;45.700;4.880;2022-11-15T07:51:59;12.30;99.90
17092;DHT22;8661;45.700;4.880;2022-11-15T07:54:26;12.40;99.90
17092;DHT22;8661;45.700;4.880;2022-11-15T07:56:53;12.50;99.90
17092;DHT22;8661;45.700;4.880;2022-11-15T07:59:20;12.60;99.90
17092;DHT22;8661;45.700;4.880;2022-11-15T08:01:47;12.60;99.90
17092;DHT22;8661;45.700;4.880;2022-11-15T08:04:15;12.60;99.90
17092;DHT22;8661;45.700;4.880;2022-11-15T08:06:42;12.60;99.90
17092;DHT22;8661;45.700;4.880;2022-11-15T08:09:09;12.70;99.90
17092;DHT22;8661;45.700;4.880;2022-11-15T08:11:36;12.70;99.90
17092;DHT22;8661;45.700;4.880;2022-11-15T08:14:03;12.80;99.90
17092;DHT22;8661;45.700;4.880;2022-11-15T08:16:30;12.80;99.90
17092;DHT22;8661;45.700;4.880;2022-11-15T08:18:57;12.90;99.90
17092;DHT22;8661;45.700;4.880;2022-11-15T08:21:26;12.90;99.90
17092;DHT22;8661;45.700;4.880;2022-11-15T08:23:53;13.00;99.90
17092;DHT22;8661;45.700;4.880;2022-11-15T08:26:19;13.00;99.90
17092;DHT22;8661;45.700;4.880;2022-11-15T08:28:47;13.10;99.90
17092;DHT22;8661;45.700;4.880;2022-11-15T08:31:14;13.20;99.90
17092;DHT22;8661;45.700;4.880;2022-11-15T08:33:43;13.30;99.90
17092;DHT22;8661;45.700;4.880;2022-11-15T08:36:13;13.30;99.90
17092;DHT22;8661;45.700;4.880;2022-11-15T08:38:43;13.40;99.90
17092;DHT22;8661;45.700;4.880;2022-11-15T08:41:14;13.50;99.90
17092;DHT22;8661;45.700;4.880;2022-11-15T08:43:43;13.60;99.90
17092;DHT22;8661;45.700;4.880;2022-11-15T08:46:12;13.90;99.90
17092;DHT22;8661;45.700;4.880;2022-11-15T08:48:39;14.10;99.90
17092;DHT22;8661;45.700;4.880;2022-11-15T08:51:06;14.30;99.90
17092;DHT22;8661;45.700;4.880;2022-11-15T08:53:33;14.30;99.90
17092;DHT22;8661;45.700;4.880;2022-11-15T08:56:02;14.50;99.90
17092;DHT22;8661;45.700;4.880;2022-11-15T08:58:29;14.50;99.90
17092;DHT22;8661;45.700;4.880;2022-11-15T09:00:56;14.70;99.90
17092;DHT22;8661;45.700;4.880;2022-11-15T09:03:23;14.80;99.90
17092;DHT22;8661;45.700;4.880;2022-11-15T09:05:54;14.80;99.90
17092;DHT22;8661;45.700;4.880;2022-11-15T09:08:21;14.70;99.90
17092;DHT22;8661;45.700;4.880;2022-11-15T09:10:48;14.70;99.90
17092;DHT22;8661;45.700;4.880;2022-11-15T09:13:16;14.70;99.90
17092;DHT22;8661;45.700;4.880;2022-11-15T09:15:43;14.70;99.90
17092;DHT22;8661;45.700;4.880;2022-11-15T09:18:10;14.70;99.90
17092;DHT22;8661;45.700;4.880;2022-11-15T09:20:38;14.70;99.90
17092;DHT22;8661;45.700;4.880;2022-11-15T09:23:05;15.00;99.90
17092;DHT22;8661;45.700;4.880;2022-11-15T09:25:32;15.10;99.90
17092;DHT22;8661;45.700;4.880;2022-11-15T09:27:59;15.30;99.90
17092;DHT22;8661;45.700;4.880;2022-11-15T09:30:27;15.20;99.90
17092;DHT22;8661;45.700;4.880;2022-11-15T09:32:55;15.00;99.90
17092;DHT22;8661;45.700;4.880;2022-11-15T09:35:24;14.90;99.90
17092;DHT22;8661;45.700;4.880;2022-11-15T09:37:51;14.90;99.90
17092;DHT22;8661;45.700;4.880;2022-11-15T09:40:19;14.90;99.90
17092;DHT22;8661;45.700;4.880;2022-11-15T09:43:20;15.00;99.90
17092;DHT22;8661;45.700;4.880;2022-11-15T09:45:59;15.00;99.90
17092;DHT22;8661;45.700;4.880;2022-11-15T09:48:43;15.00;99.90
17092;DHT22;8661;45.700;4.880;2022-11-15T09:51:18;15.10;99.90
17092;DHT22;8661;45.700;4.880;2022-11-15T09:53:52;15.10;99.90
17092;DHT22;8661;45.700;4.880;2022-11-15T09:56:26;15.10;99.90
17092;DHT22;8661;45.700;4.880;2022-11-15T09:59:00;15.20;99.90
17092;DHT22;8661;45.700;4.880;2022-11-15T10:01:38;15.20;99.90
17092;DHT22;8661;45.700;4.880;2022-11-15T10:04:06;15.30;99.90
17092;DHT22;8661;45.700;4.880;2022-11-15T10:06:36;15.30;99.90
17092;DHT22;8661;45.700;4.880;2022-11-15T10:09:11;15.30;99.90
17092;DHT22;8661;45.700;4.880;2022-11-15T10:11:40;15.30;99.90
17092;DHT22;8661;45.700;4.880;2022-11-15T10:14:11;15.20;99.90
17092;DHT22;8661;45.700;4.880;2022-11-15T10:19:50;15.30;99.90
17092;DHT22;8661;45.700;4.880;2022-11-15T10:22:26;15.30;99.90
17092;DHT22;8661;45.700;4.880;2022-11-15T10:25:09;15.40;99.90
17092;DHT22;8661;45.700;4.880;2022-11-15T10:27:38;15.30;99.90
17092;DHT22;8661;45.700;4.880;2022-11-15T10:30:11;15.40;99.90
17092;DHT22;8661;45.700;4.880;2022-11-15T10:32:39;15.40;99.90
17092;DHT22;8661;45.700;4.880;2022-11-15T10:35:19;15.50;99.90
17092;DHT22;8661;45.700;4.880;2022-11-15T10:37:46;15.50;99.90
17092;DHT22;8661;45.700;4.880;2022-11-15T10:40:19;15.60;99.90
17092;DHT22;8661;45.700;4.880;2022-11-15T10:42:47;15.60;99.90
17092;DHT22;8661;45.700;4.880;2022-11-15T10:45:32;15.60;99.90
17092;DHT22;8661;45.700;4.880;2022-11-15T10:48:22;15.60;99.90
17092;DHT22;8661;45.700;4.880;2022-11-15T10:50:52;15.60;99.90
17092;DHT22;8661;45.700;4.880;2022-11-15T10:53:28;15.70;99.90
17092;DHT22;8661;45.700;4.880;2022-11-15T10:56:00;15.80;99.90
17092;DHT22;8661;45.700;4.880;2022-11-15T10:58:33;15.70;99.90
17092;DHT22;8661;45.700;4.880;2022-11-15T11:01:15;15.80;99.90
17092;DHT22;8661;45.700;4.880;2022-11-15T11:03:44;15.80;99.90
17092;DHT22;8661;45.700;4.880;2022-11-15T11:06:15;15.90;99.90
17092;DHT22;8661;45.700;4.880;2022-11-15T11:08:55;15.90;99.90
17092;DHT22;8661;45.700;4.880;2022-11-15T11:11:23;15.90;99.90
17092;DHT22;8661;45.700;4.880;2022-11-15T11:13:50;16.00;99.90
17092;DHT22;8661;45.700;4.880;2022-11-15T11:19:25;16.00;99.90
17092;DHT22;8661;45.700;4.880;2022-11-15T11:22:01;16.00;99.90
17092;DHT22;8661;45.700;4.880;2022-11-15T11:24:36;16.00;99.90
17092;DHT22;8661;45.700;4.880;2022-11-15T11:27:14;16.00;99.90
17092;DHT22;8661;45.700;4.880;2022-11-15T11:29:53;16.10;99.90
17092;DHT22;8661;45.700;4.880;2022-11-15T11:35:20;16.20;99.90
17092;DHT22;8661;45.700;4.880;2022-11-15T11:37:52;16.20;99.90
17092;DHT22;8661;45.700;4.880;2022-11-15T11:40:32;16.20;99.90
17092;DHT22;8661;45.700;4.880;2022-11-15T11:43:06;16.20;99.90
17092;DHT22;8661;45.700;4.880;2022-11-15T11:45:49;16.20;99.90
17092;DHT22;8661;45.700;4.880;2022-11-15T11:48:28;16.20;99.90
17092;DHT22;8661;45.700;4.880;2022-11-15T11:51:03;16.20;99.90
17092;DHT22;8661;45.700;4.880;2022-11-15T11:53:40;16.20;99.90
17092;DHT22;8661;45.700;4.880;2022-11-15T11:56:17;16.20;99.90
17092;DHT22;8661;45.700;4.880;2022-11-15T11:58:46;16.10;99.90
17092;DHT22;8661;45.700;4.880;2022-11-15T12:01:17;16.10;99.90
17092;DHT22;8661;45.700;4.880;2022-11-15T12:03:51;16.10;99.90
17092;DHT22;8661;45.700;4.880;2022-11-15T12:06:31;16.10;99.90
17092;DHT22;8661;45.700;4.880;2022-11-15T12:09:04;16.10;99.90
17092;DHT22;8661;45.700;4.880;2022-11-15T12:11:38;16.10;99.90
17092;DHT22;8661;45.700;4.880;2022-11-15T12:14:12;16.10;99.90
17092;DHT22;8661;45.700;4.880;2022-11-15T12:16:43;16.10;99.90
17092;DHT22;8661;45.700;4.880;2022-11-15T12:19:10;16.10;99.90
17092;DHT22;8661;45.700;4.880;2022-11-15T12:21:43;16.10;99.90
17092;DHT22;8661;45.700;4.880;2022-11-15T12:24:17;16.10;99.90
17092;DHT22;8661;45.700;4.880;2022-11-15T12:26:49;16.10;99.90
17092;DHT22;8661;45.700;4.880;2022-11-15T12:29:22;16.10;99.90
17092;DHT22;8661;45.700;4.880;2022-11-15T12:31:53;16.10;99.90
17092;DHT22;8661;45.700;4.880;2022-11-15T12:34:40;16.10;99.90
17092;DHT22;8661;45.700;4.880;2022-11-15T12:40:35;16.00;99.90
17092;DHT22;8661;45.700;4.880;2022-11-15T12:45:50;16.00;99.90
17092;DHT22;8661;45.700;4.880;2022-11-15T12:48:46;16.00;99.90
17092;DHT22;8661;45.700;4.880;2022-11-15T12:51:13;16.00;99.90
17092;DHT22;8661;45.700;4.880;2022-11-15T12:53:40;16.00;99.90
17092;DHT22;8661;45.700;4.880;2022-11-15T12:56:24;16.00;99.90
17092;DHT22;8661;45.700;4.880;2022-11-15T12:58:53;16.10;99.90
17092;DHT22;8661;45.700;4.880;2022-11-15T13:01:58;16.10;99.90
17092;DHT22;8661;45.700;4.880;2022-11-15T13:04:28;16.10;99.90
17092;DHT22;8661;45.700;4.880;2022-11-15T13:07:00;16.20;99.90
17092;DHT22;8661;45.700;4.880;2022-11-15T13:09:53;16.20;99.90
17092;DHT22;8661;45.700;4.880;2022-11-15T13:12:51;16.20;99.90
17092;DHT22;8661;45.700;4.880;2022-11-15T13:15:57;16.20;99.90
17092;DHT22;8661;45.700;4.880;2022-11-15T13:18:38;16.30;99.90
17092;DHT22;8661;45.700;4.880;2022-11-15T13:21:19;16.30;99.90
17092;DHT22;8661;45.700;4.880;2022-11-15T13:24:04;16.30;99.90
17092;DHT22;8661;45.700;4.880;2022-11-15T13:26:32;16.30;99.90
17092;DHT22;8661;45.700;4.880;2022-11-15T13:29:00;16.30;99.90
17092;DHT22;8661;45.700;4.880;2022-11-15T13:31:35;16.30;99.90
17092;DHT22;8661;45.700;4.880;2022-11-15T13:34:24;16.30;99.90
17092;DHT22;8661;45.700;4.880;2022-11-15T13:36:51;16.30;99.90
17092;DHT22;8661;45.700;4.880;2022-11-15T13:39:26;16.30;99.90
17092;DHT22;8661;45.700;4.880;2022-11-15T13:41:54;16.30;99.90
17092;DHT22;8661;45.700;4.880;2022-11-15T13:44:24;16.30;99.90
17092;DHT22;8661;45.700;4.880;2022-11-15T13:47:01;16.30;99.90
17092;DHT22;8661;45.700;4.880;2022-11-15T13:49:29;16.30;99.90
17092;DHT22;8661;45.700;4.880;2022-11-15T13:51:57;16.30;99.90
17092;DHT22;8661;45.700;4.880;2022-11-15T13:54:29;16.40;99.90
17092;DHT22;8661;45.700;4.880;2022-11-15T13:56:58;16.40;99.90
17092;DHT22;8661;45.700;4.880;2022-11-15T13:59:29;16.40;99.90
17092;DHT22;8661;45.700;4.880;2022-11-15T14:02:10;16.30;99.90
17092;DHT22;8661;45.700;4.880;2022-11-15T14:04:39;16.30;99.90
17092;DHT22;8661;45.700;4.880;2022-11-15T14:07:16;16.30;99.90
17092;DHT22;8661;45.700;4.880;2022-11-15T14:09:44;16.30;99.90
17092;DHT22;8661;45.700;4.880;2022-11-15T14:12:36;16.30;99.90
17092;DHT22;8661;45.700;4.880;2022-11-15T14:15:25;16.30;99.90
17092;DHT22;8661;45.700;4.880;2022-11-15T14:17:52;16.20;99.90
17092;DHT22;8661;45.700;4.880;2022-11-15T14:20:26;16.20;99.90
17092;DHT22;8661;45.700;4.880;2022-11-15T14:22:57;16.10;99.90
17092;DHT22;8661;45.700;4.880;2022-11-15T14:25:25;16.10;99.90
17092;DHT22;8661;45.700;4.880;2022-11-15T14:28:11;16.10;99.90
17092;DHT22;8661;45.700;4.880;2022-11-15T14:30:41;16.00;99.90
17092;DHT22;8661;45.700;4.880;2022-11-15T14:33:23;16.00;99.90
17092;DHT22;8661;45.700;4.880;2022-11-15T14:35:52;15.90;99.90
17092;DHT22;8661;45.700;4.880;2022-11-15T14:38:21;15.90;99.90
17092;DHT22;8661;45.700;4.880;2022-11-15T14:40:48;15.90;99.90
17092;DHT22;8661;45.700;4.880;2022-11-15T14:43:15;15.90;99.90
17092;DHT22;8661;45.700;4.880;2022-11-15T14:45:45;15.90;99.90
17092;DHT22;8661;45.700;4.880;2022-11-15T14:48:12;15.90;99.90
17092;DHT22;8661;45.700;4.880;2022-11-15T14:50:39;15.90;99.90
17092;DHT22;8661;45.700;4.880;2022-11-15T14:53:06;15.80;99.90
17092;DHT22;8661;45.700;4.880;2022-11-15T14:55:35;15.80;99.90
17092;DHT22;8661;45.700;4.880;2022-11-15T14:58:03;15.90;99.90
17092;DHT22;8661;45.700;4.880;2022-11-15T15:00:30;15.80;99.90
17092;DHT22;8661;45.700;4.880;2022-11-15T15:02:58;15.80;99.90
17092;DHT22;8661;45.700;4.880;2022-11-15T15:05:29;15.80;99.90
17092;DHT22;8661;45.700;4.880;2022-11-15T15:07:57;15.80;99.90
17092;DHT22;8661;45.700;4.880;2022-11-15T15:10:24;15.80;99.90
17092;DHT22;8661;45.700;4.880;2022-11-15T15:12:52;15.80;99.90
17092;DHT22;8661;45.700;4.880;2022-11-15T15:15:23;15.80;99.90
17092;DHT22;8661;45.700;4.880;2022-11-15T15:17:51;15.80;99.90
17092;DHT22;8661;45.700;4.880;2022-11-15T15:20:20;15.80;99.90
17092;DHT22;8661;45.700;4.880;2022-11-15T15:22:47;15.80;99.90
17092;DHT22;8661;45.700;4.880;2022-11-15T15:25:32;15.70;99.90
17092;DHT22;8661;45.700;4.880;2022-11-15T15:28:00;15.70;99.90
17092;DHT22;8661;45.700;4.880;2022-11-15T15:30:29;15.60;99.90
17092;DHT22;8661;45.700;4.880;2022-11-15T15:32:56;15.60;99.90
17092;DHT22;8661;45.700;4.880;2022-11-15T15:35:28;15.60;99.90
17092;DHT22;8661;45.700;4.880;2022-11-15T15:37:56;15.50;99.90
17092;DHT22;8661;45.700;4.880;2022-11-15T15:40:24;15.50;99.90
17092;DHT22;8661;45.700;4.880;2022-11-15T15:42:52;15.40;99.90
17092;DHT22;8661;45.700;4.880;2022-11-15T15:45:19;15.40;99.90
17092;DHT22;8661;45.700;4.880;2022-11-15T15:47:46;15.30;99.90
17092;DHT22;8661;45.700;4.880;2022-11-15T15:50:22;15.30;99.90
17092;DHT22;8661;45.700;4.880;2022-11-15T15:52:51;15.20;99.90
17092;DHT22;8661;45.700;4.880;2022-11-15T15:55:18;15.20;99.90
17092;DHT22;8661;45.700;4.880;2022-11-15T15:57:46;15.20;99.90
17092;DHT22;8661;45.700;4.880;2022-11-15T16:00:14;15.10;99.90
17092;DHT22;8661;45.700;4.880;2022-11-15T16:02:41;15.10;99.90
17092;DHT22;8661;45.700;4.880;2022-11-15T16:05:09;15.20;99.90
17092;DHT22;8661;45.700;4.880;2022-11-15T16:07:37;15.10;99.90
17092;DHT22;8661;45.700;4.880;2022-11-15T16:10:17;15.10;99.90
17092;DHT22;8661;45.700;4.880;2022-11-15T16:12:44;15.10;99.90
17092;DHT22;8661;45.700;4.880;2022-11-15T16:15:11;15.10;99.90
17092;DHT22;8661;45.700;4.880;2022-11-15T16:17:40;15.10;99.90
17092;DHT22;8661;45.700;4.880;2022-11-15T16:20:21;15.10;99.90
17092;DHT22;8661;45.700;4.880;2022-11-15T16:22:49;15.10;99.90
17092;DHT22;8661;45.700;4.880;2022-11-15T16:25:17;15.00;99.90
17092;DHT22;8661;45.700;4.880;2022-11-15T16:27:44;15.00;99.90
17092;DHT22;8661;45.700;4.880;2022-11-15T16:30:15;15.00;99.90
17092;DHT22;8661;45.700;4.880;2022-11-15T16:32:42;15.00;99.90